Time;durP1;ratioP1;P1;durP2;ratioP2;P2;SDS_P1;SDS_P2;PMS_P1;PMS_P2;Temp;Humidity;BMP_temperature;BMP_pressure;BME280_temperature;BME280_humidity;BME280_pressure;Samples;Min_cycle;Max_cycle;Signal;HPM_P1;HPM_P2
2021/10/14 00:01:47;;;;;;;6.05;3.97;;;7.00;86.10;;;;;;5074511;28;20289;-63
2021/10/14 00:04:15;;;;;;;6.43;4.68;;;7.00;86.20;;;;;;5074640;28;20280;-64
2021/10/14 00:06:43;;;;;;;8.98;4.50;;;7.00;86.60;;;;;;5074475;28;20197;-64
2021/10/14 00:09:11;;;;;;;7.65;4.15;;;7.00;86.40;;;;;;5074404;28;20230;-64
2021/10/14 00:11:38;;;;;;;9.73;4.88;;;6.90;85.40;;;;;;5073345;28;20214;-64
2021/10/14 00:14:05;;;;;;;6.78;4.68;;;6.80;85.40;;;;;;5073767;28;20583;-64
2021/10/14 00:16:33;;;;;;;5.38;4.13;;;6.70;85.00;;;;;;5074225;28;20311;-64
2021/10/14 00:19:00;;;;;;;6.55;4.47;;;6.70;85.00;;;;;;5074294;28;20669;-64
2021/10/14 00:21:27;;;;;;;5.85;4.53;;;6.60;84.90;;;;;;5074222;28;20285;-65
2021/10/14 00:23:54;;;;;;;5.78;4.50;;;6.60;85.00;;;;;;5074421;28;20281;-63
2021/10/14 00:26:22;;;;;;;5.85;4.35;;;6.50;85.30;;;;;;5073479;28;20272;-63
2021/10/14 00:28:49;;;;;;;6.85;4.50;;;6.50;85.60;;;;;;5074320;28;20284;-64
2021/10/14 00:31:16;;;;;;;6.57;4.13;;;6.50;85.60;;;;;;5074018;28;20825;-64
2021/10/14 00:33:43;;;;;;;4.47;3.67;;;6.50;85.20;;;;;;5073399;28;20288;-64
2021/10/14 00:36:10;;;;;;;7.05;4.45;;;6.40;84.30;;;;;;5053284;28;20276;-63
2021/10/14 00:38:37;;;;;;;6.40;4.40;;;6.30;83.80;;;;;;5053080;28;20281;-65
2021/10/14 00:41:04;;;;;;;5.70;4.30;;;6.30;83.60;;;;;;5070946;28;20264;-64
2021/10/14 00:43:33;;;;;;;5.97;4.63;;;6.20;83.60;;;;;;5074175;28;20217;-64
2021/10/14 00:46:00;;;;;;;5.60;4.10;;;6.20;83.80;;;;;;5073419;28;20268;-64
2021/10/14 00:48:26;;;;;;;5.90;3.88;;;6.10;83.70;;;;;;5073637;28;20281;-64
2021/10/14 00:50:54;;;;;;;6.40;3.78;;;6.10;83.70;;;;;;5072624;28;20214;-63
2021/10/14 00:53:20;;;;;;;6.75;3.72;;;6.00;84.10;;;;;;5072140;28;20194;-64
2021/10/14 00:55:47;;;;;;;5.43;4.13;;;6.00;84.50;;;;;;5073339;28;20225;-64
2021/10/14 00:58:15;;;;;;;4.43;3.47;;;5.90;84.20;;;;;;5073094;28;20277;-64
2021/10/14 01:00:43;;;;;;;5.95;3.75;;;5.90;84.20;;;;;;5073432;28;20193;-63
2021/10/14 01:03:10;;;;;;;7.25;4.88;;;5.90;84.50;;;;;;5073181;28;20289;-63
2021/10/14 01:05:37;;;;;;;7.47;5.15;;;5.80;84.80;;;;;;5073206;28;20194;-64
2021/10/14 01:08:04;;;;;;;6.57;4.88;;;5.80;85.30;;;;;;5073225;28;20543;-64
2021/10/14 01:10:31;;;;;;;5.35;4.38;;;5.70;86.10;;;;;;5073480;28;20279;-64
2021/10/14 01:12:59;;;;;;;6.38;4.68;;;5.70;86.40;;;;;;5073026;28;20281;-63
2021/10/14 01:15:27;;;;;;;5.70;4.20;;;5.70;86.60;;;;;;5073281;28;20702;-64
2021/10/14 01:17:57;;;;;;;6.72;4.40;;;5.60;86.90;;;;;;5073266;28;20251;-64
2021/10/14 01:20:25;;;;;;;5.90;4.30;;;5.60;87.30;;;;;;5073210;28;20280;-63
2021/10/14 01:22:52;;;;;;;7.25;5.15;;;5.70;87.30;;;;;;5070947;28;20280;-69
2021/10/14 01:25:20;;;;;;;6.28;5.00;;;5.60;86.80;;;;;;5068414;28;20782;-64
2021/10/14 01:27:50;;;;;;;8.13;6.03;;;5.60;87.10;;;;;;5072622;28;20189;-63
2021/10/14 01:30:17;;;;;;;7.57;4.22;;;5.50;87.10;;;;;;5071462;28;20600;-64
2021/10/14 01:32:47;;;;;;;11.88;4.13;;;5.50;87.40;;;;;;5072911;28;20608;-63
2021/10/14 01:35:14;;;;;;;6.28;4.72;;;5.50;87.30;;;;;;5071715;28;20201;-63
2021/10/14 01:37:43;;;;;;;7.15;4.78;;;5.50;86.90;;;;;;5072005;28;20236;-64
2021/10/14 01:40:11;;;;;;;5.47;4.15;;;5.50;86.60;;;;;;5072748;28;20707;-64
2021/10/14 01:42:38;;;;;;;7.53;4.90;;;5.50;86.50;;;;;;5072774;28;20280;-64
2021/10/14 01:45:07;;;;;;;7.05;4.50;;;5.40;86.30;;;;;;5072893;28;20190;-64
2021/10/14 01:47:35;;;;;;;6.18;4.07;;;5.40;87.10;;;;;;5072239;28;20247;-64
2021/10/14 01:50:02;;;;;;;5.78;4.82;;;5.30;87.20;;;;;;5072109;28;20699;-64
2021/10/14 01:52:34;;;;;;;6.05;5.40;;;5.30;88.00;;;;;;5072737;28;20228;-63
2021/10/14 01:55:02;;;;;;;6.30;5.50;;;5.30;88.40;;;;;;5072561;28;20196;-64
2021/10/14 01:57:31;;;;;;;7.75;5.10;;;5.20;88.50;;;;;;5072748;28;20277;-64
2021/10/14 01:59:58;;;;;;;5.45;4.90;;;5.30;88.80;;;;;;5072805;28;20640;-64
2021/10/14 02:02:25;;;;;;;6.68;4.70;;;5.30;88.80;;;;;;5072430;28;20278;-64
2021/10/14 02:04:54;;;;;;;5.25;4.32;;;5.30;88.60;;;;;;5070545;28;20273;-64
2021/10/14 02:07:21;;;;;;;8.30;5.38;;;5.30;88.40;;;;;;5072200;28;20189;-64
2021/10/14 02:09:47;;;;;;;6.45;4.20;;;5.30;88.30;;;;;;5071676;28;20308;-64
2021/10/14 02:12:16;;;;;;;6.10;4.47;;;5.30;88.00;;;;;;5072435;28;20272;-64
2021/10/14 02:14:43;;;;;;;7.90;5.28;;;5.30;86.70;;;;;;5071739;28;20190;-65
2021/10/14 02:17:10;;;;;;;5.68;4.18;;;5.20;86.10;;;;;;5070501;28;20993;-64
2021/10/14 02:19:37;;;;;;;5.40;4.13;;;5.10;85.90;;;;;;5070408;28;20365;-63
2021/10/14 02:22:04;;;;;;;5.05;3.90;;;5.10;85.70;;;;;;5071240;28;20189;-63
2021/10/14 02:24:31;;;;;;;5.55;4.32;;;5.10;85.50;;;;;;5072377;28;20272;-64
2021/10/14 02:26:58;;;;;;;7.45;5.13;;;5.10;86.00;;;;;;5072467;28;20225;-64
2021/10/14 02:29:26;;;;;;;7.50;5.47;;;5.10;86.30;;;;;;5072641;28;20226;-63
2021/10/14 02:31:54;;;;;;;6.32;4.00;;;5.00;86.80;;;;;;5072396;28;20664;-64
2021/10/14 02:34:21;;;;;;;5.50;5.00;;;5.00;87.10;;;;;;5072195;28;20189;-63
2021/10/14 02:36:48;;;;;;;7.65;5.28;;;5.00;87.10;;;;;;5074981;28;20613;-63
2021/10/14 02:39:15;;;;;;;5.82;4.60;;;4.90;87.40;;;;;;5076280;28;20272;-64
2021/10/14 02:41:42;;;;;;;5.35;4.18;;;4.90;87.70;;;;;;5076130;28;20608;-64
2021/10/14 02:44:09;;;;;;;6.68;4.93;;;4.90;87.60;;;;;;5076291;28;20280;-64
2021/10/14 02:46:37;;;;;;;6.28;4.32;;;4.80;86.70;;;;;;5076160;28;20372;-65
2021/10/14 02:49:04;;;;;;;4.75;3.90;;;4.80;86.50;;;;;;5076061;28;20277;-64
2021/10/14 02:51:31;;;;;;;6.88;5.40;;;4.80;86.40;;;;;;5075600;28;20272;-64
2021/10/14 02:53:58;;;;;;;6.53;4.68;;;4.70;86.20;;;;;;5076094;28;20552;-65
2021/10/14 02:56:25;;;;;;;7.22;5.07;;;4.60;87.10;;;;;;5075813;28;20300;-63
2021/10/14 02:58:52;;;;;;;9.38;6.30;;;4.50;87.50;;;;;;5075778;28;20236;-63
2021/10/14 03:01:19;;;;;;;8.40;6.18;;;4.50;87.80;;;;;;5075805;28;20229;-63
2021/10/14 03:03:47;;;;;;;9.02;5.55;;;4.50;88.00;;;;;;5075075;28;20208;-64
2021/10/14 03:06:14;;;;;;;6.93;5.50;;;4.40;87.90;;;;;;5075739;28;20281;-64
2021/10/14 03:08:41;;;;;;;7.55;5.82;;;4.40;87.50;;;;;;5073295;28;20297;-64
2021/10/14 03:11:08;;;;;;;7.07;5.53;;;4.30;87.70;;;;;;5074718;28;20192;-64
2021/10/14 03:13:37;;;;;;;5.45;4.82;;;4.20;87.90;;;;;;5075497;28;20273;-64
2021/10/14 03:16:05;;;;;;;5.55;3.83;;;4.20;87.90;;;;;;5075361;28;20271;-64
2021/10/14 03:18:33;;;;;;;7.07;4.47;;;4.10;88.20;;;;;;5074404;28;20273;-64
2021/10/14 03:21:02;;;;;;;5.90;4.50;;;4.10;89.40;;;;;;5075330;28;20277;-63
2021/10/14 03:23:29;;;;;;;5.97;4.50;;;4.10;89.30;;;;;;5074271;28;20273;-65
2021/10/14 03:25:56;;;;;;;6.28;4.80;;;3.90;90.20;;;;;;5074917;28;20277;-63
2021/10/14 03:28:23;;;;;;;7.75;4.60;;;3.80;90.90;;;;;;5075210;28;20229;-63
2021/10/14 03:30:50;;;;;;;6.07;4.70;;;3.90;91.00;;;;;;5075256;28;20296;-64
2021/10/14 03:33:17;;;;;;;6.03;5.28;;;4.00;91.20;;;;;;5075161;28;20648;-63
2021/10/14 03:35:44;;;;;;;7.10;5.45;;;4.00;91.00;;;;;;5074394;28;20258;-65
2021/10/14 03:38:12;;;;;;;6.38;4.07;;;4.10;90.90;;;;;;5074661;28;20285;-63
2021/10/14 03:40:39;;;;;;;6.93;4.60;;;4.10;90.50;;;;;;5075023;28;20276;-63
2021/10/14 03:43:06;;;;;;;6.75;5.20;;;4.10;90.10;;;;;;5074848;28;20229;-63
2021/10/14 03:45:33;;;;;;;6.72;5.22;;;4.10;89.70;;;;;;5074847;28;20277;-66
2021/10/14 03:48:00;;;;;;;11.40;5.05;;;4.10;89.90;;;;;;5074218;28;20273;-64
2021/10/14 03:50:27;;;;;;;6.15;4.68;;;4.30;89.90;;;;;;5074665;28;20221;-65
2021/10/14 03:52:54;;;;;;;6.10;4.65;;;4.30;90.10;;;;;;5074851;28;20578;-63
2021/10/14 03:55:22;;;;;;;7.43;4.43;;;4.30;90.40;;;;;;5074592;28;20281;-63
2021/10/14 03:57:49;;;;;;;8.13;4.75;;;4.40;90.60;;;;;;5074591;28;20630;-64
2021/10/14 04:00:16;;;;;;;5.50;4.15;;;4.50;90.50;;;;;;5074533;28;20221;-64
2021/10/14 04:02:43;;;;;;;5.22;4.15;;;4.50;90.30;;;;;;5074687;28;20268;-63
2021/10/14 04:05:11;;;;;;;6.20;4.35;;;4.60;90.00;;;;;;5074719;28;20222;-64
2021/10/14 04:07:38;;;;;;;6.15;4.47;;;4.60;90.00;;;;;;5073665;28;20605;-63
2021/10/14 04:10:06;;;;;;;6.78;4.78;;;4.60;90.00;;;;;;5074283;28;20305;-63
2021/10/14 04:12:35;;;;;;;5.32;4.60;;;4.70;90.00;;;;;;5073883;28;20272;-63
2021/10/14 04:15:02;;;;;;;6.68;4.50;;;4.80;90.10;;;;;;5072926;28;20193;-64
2021/10/14 04:17:29;;;;;;;7.80;5.22;;;4.80;90.10;;;;;;5074346;28;20627;-64
2021/10/14 04:19:56;;;;;;;4.88;3.95;;;4.80;90.00;;;;;;5073984;28;20648;-64
2021/10/14 04:22:23;;;;;;;6.20;4.70;;;4.80;90.10;;;;;;5074328;28;20190;-64
2021/10/14 04:24:51;;;;;;;7.80;4.90;;;4.90;90.30;;;;;;5074119;28;20284;-64
2021/10/14 04:27:18;;;;;;;7.00;4.50;;;4.90;90.40;;;;;;5074393;28;20283;-63
2021/10/14 04:29:47;;;;;;;8.40;5.95;;;4.90;90.40;;;;;;5073682;28;20284;-63
2021/10/14 04:32:14;;;;;;;7.60;5.53;;;4.90;90.20;;;;;;5073465;28;20696;-63
2021/10/14 04:34:41;;;;;;;7.18;5.45;;;4.80;90.30;;;;;;5073562;28;20289;-64
2021/10/14 04:37:08;;;;;;;7.57;5.47;;;4.70;90.50;;;;;;5074039;28;20652;-64
2021/10/14 04:39:36;;;;;;;8.10;5.65;;;4.60;90.70;;;;;;5074175;28;20225;-63
2021/10/14 04:42:04;;;;;;;8.13;5.00;;;4.50;90.80;;;;;;5073995;28;20190;-64
2021/10/14 04:44:31;;;;;;;7.68;4.80;;;4.50;91.10;;;;;;5073924;28;20272;-64
2021/10/14 04:47:02;;;;;;;6.82;4.00;;;4.50;91.10;;;;;;5073987;28;20306;-64
2021/10/14 04:49:29;;;;;;;8.70;4.22;;;4.50;91.00;;;;;;5073924;28;20193;-64
2021/10/14 04:51:57;;;;;;;6.68;4.93;;;4.50;91.10;;;;;;5071319;28;20372;-63
2021/10/14 04:54:24;;;;;;;8.55;5.45;;;4.50;91.00;;;;;;5073804;28;20259;-66
2021/10/14 04:56:51;;;;;;;6.60;5.15;;;4.60;91.10;;;;;;5073517;28;20252;-64
2021/10/14 04:59:18;;;;;;;8.70;5.30;;;4.60;91.10;;;;;;5072050;28;20239;-63
2021/10/14 05:01:45;;;;;;;7.90;5.78;;;4.60;90.90;;;;;;5073705;28;20276;-63
2021/10/14 05:04:13;;;;;;;7.70;5.80;;;4.70;91.00;;;;;;5073444;28;20272;-64
2021/10/14 05:06:41;;;;;;;8.68;5.38;;;4.80;91.10;;;;;;5073588;28;20635;-64
2021/10/14 05:09:08;;;;;;;6.82;5.28;;;4.90;91.10;;;;;;5072704;28;20606;-63
2021/10/14 05:11:35;;;;;;;7.25;5.03;;;5.00;91.50;;;;;;5073052;28;20311;-64
2021/10/14 05:14:02;;;;;;;6.80;5.10;;;5.00;90.80;;;;;;5067979;28;20197;-68
2021/10/14 05:16:32;;;;;;;8.48;5.75;;;5.00;90.60;;;;;;5072760;28;20221;-65
2021/10/14 05:19:00;;;;;;;8.38;5.10;;;5.00;90.50;;;;;;5070458;28;20182;-63
2021/10/14 05:21:28;;;;;;;15.25;7.15;;;5.00;90.20;;;;;;5072463;28;20194;-63
2021/10/14 05:23:59;;;;;;;8.75;5.70;;;5.00;90.20;;;;;;5071640;28;20197;-63
2021/10/14 05:26:27;;;;;;;8.20;6.28;;;5.00;90.10;;;;;;5072616;28;20663;-63
2021/10/14 05:28:54;;;;;;;11.40;6.10;;;5.10;89.70;;;;;;5072756;28;20300;-63
2021/10/14 05:31:22;;;;;;;9.00;6.20;;;5.10;90.30;;;;;;5072392;28;20731;-64
2021/10/14 05:33:49;;;;;;;8.02;6.22;;;5.00;89.60;;;;;;5071838;28;20216;-64
2021/10/14 05:36:16;;;;;;;12.73;5.90;;;5.10;89.10;;;;;;5071699;28;20258;-64
2021/10/14 05:38:45;;;;;;;8.80;5.25;;;5.00;88.90;;;;;;5072305;28;20186;-63
2021/10/14 05:41:15;;;;;;;9.93;5.82;;;5.00;89.10;;;;;;5071894;28;20631;-64
2021/10/14 05:43:42;;;;;;;16.92;7.85;;;5.00;88.60;;;;;;5072030;28;20190;-64
2021/10/14 05:46:10;;;;;;;10.57;7.10;;;5.00;88.70;;;;;;5072449;28;20189;-63
2021/10/14 05:48:39;;;;;;;11.55;6.53;;;5.00;89.10;;;;;;5071826;28;20205;-64
2021/10/14 05:51:06;;;;;;;11.25;7.70;;;5.10;89.40;;;;;;5072558;28;20190;-64
2021/10/14 05:53:33;;;;;;;24.70;14.55;;;5.10;89.30;;;;;;5071481;28;20209;-64
2021/10/14 05:56:02;;;;;;;21.55;12.90;;;5.20;89.40;;;;;;5072160;28;20307;-64
2021/10/14 05:58:29;;;;;;;16.02;9.43;;;5.20;89.90;;;;;;5068371;28;20218;-64
2021/10/14 06:00:56;;;;;;;14.40;7.50;;;5.30;90.00;;;;;;5069852;28;20198;-63
2021/10/14 06:03:23;;;;;;;13.50;7.45;;;5.40;90.00;;;;;;5070327;28;20247;-65
2021/10/14 06:05:50;;;;;;;8.35;5.25;;;5.40;90.20;;;;;;5070158;28;20284;-64
2021/10/14 06:08:18;;;;;;;9.13;5.72;;;5.50;90.10;;;;;;5069867;28;20271;-64
2021/10/14 06:10:45;;;;;;;13.15;8.50;;;5.50;90.00;;;;;;5070166;28;20236;-63
2021/10/14 06:13:13;;;;;;;8.95;6.90;;;5.60;90.10;;;;;;5069993;28;20552;-65
2021/10/14 06:15:40;;;;;;;16.08;8.57;;;5.70;90.10;;;;;;5068462;28;20213;-64
2021/10/14 06:18:13;;;;;;;11.00;6.45;;;5.70;90.20;;;;;;5069067;28;20763;-65
2021/10/14 06:20:41;;;;;;;9.05;6.40;;;5.80;90.10;;;;;;5069660;28;20194;-65
2021/10/14 06:23:08;;;;;;;8.63;5.68;;;5.90;89.80;;;;;;5067407;28;20186;-64
2021/10/14 06:25:39;;;;;;;12.43;6.15;;;6.00;89.90;;;;;;5069663;28;20190;-65
2021/10/14 06:28:06;;;;;;;8.77;5.70;;;6.00;90.00;;;;;;5061193;28;20228;-65
2021/10/14 06:30:35;;;;;;;8.25;5.55;;;6.10;90.10;;;;;;5064522;28;20201;-64
2021/10/14 06:33:02;;;;;;;7.55;5.65;;;6.20;90.00;;;;;;5068473;28;20213;-65
2021/10/14 06:35:29;;;;;;;10.30;5.65;;;6.20;90.20;;;;;;5069352;28;20204;-64
2021/10/14 06:37:58;;;;;;;6.38;5.22;;;6.30;90.40;;;;;;5069187;28;20298;-64
2021/10/14 06:40:25;;;;;;;7.43;5.95;;;6.40;90.40;;;;;;5069915;28;20197;-64
2021/10/14 06:42:53;;;;;;;6.78;5.60;;;6.50;90.10;;;;;;5069725;28;20196;-64
2021/10/14 06:45:20;;;;;;;7.65;5.30;;;6.50;89.60;;;;;;5070178;28;20190;-64
2021/10/14 06:47:49;;;;;;;6.60;5.72;;;6.60;89.80;;;;;;5069292;28;20182;-66
2021/10/14 06:50:17;;;;;;;7.13;4.90;;;6.70;89.20;;;;;;5065572;28;20247;-65
2021/10/14 06:52:44;;;;;;;11.40;6.00;;;6.80;88.60;;;;;;5068980;28;20694;-64
2021/10/14 06:55:14;;;;;;;7.20;5.78;;;7.00;88.70;;;;;;5069074;28;20558;-64
2021/10/14 06:57:42;;;;;;;29.83;6.18;;;7.10;88.30;;;;;;5068467;28;20542;-64
2021/10/14 07:00:24;;;;;;;;;;;;;;;;;;;;;
2021/10/14 07:02:53;;;;;;;9.15;4.90;;;7.50;86.90;;;;;;5067566;28;20189;-64
2021/10/14 07:05:20;;;;;;;7.80;5.40;;;7.60;85.10;;;;;;5066466;28;20186;-66
2021/10/14 07:07:47;;;;;;;7.18;5.03;;;7.70;85.00;;;;;;5068766;28;20190;-64
2021/10/14 07:10:15;;;;;;;6.50;4.93;;;7.80;84.90;;;;;;5068815;28;20226;-64
2021/10/14 07:12:43;;;;;;;6.30;3.85;;;7.90;83.60;;;;;;5068603;28;20877;-64
2021/10/14 07:15:11;;;;;;;7.47;4.13;;;8.00;82.20;;;;;;5068210;28;20243;-63
2021/10/14 07:17:38;;;;;;;8.95;4.18;;;8.00;82.50;;;;;;5067275;28;20352;-64
2021/10/14 07:20:09;;;;;;;7.60;4.70;;;8.10;81.70;;;;;;5068684;28;20193;-64
2021/10/14 07:22:36;;;;;;;9.35;4.80;;;8.30;81.80;;;;;;5068603;28;20196;-64
2021/10/14 07:25:05;;;;;;;6.28;4.35;;;8.50;81.90;;;;;;5070452;28;20194;-64
2021/10/14 07:27:32;;;;;;;6.30;4.60;;;8.70;78.20;;;;;;5071996;28;20197;-64
2021/10/14 07:30:00;;;;;;;5.50;3.72;;;8.80;77.10;;;;;;5071295;28;20189;-64
2021/10/14 07:32:27;;;;;;;6.05;3.88;;;8.90;78.20;;;;;;5072060;28;20698;-64
2021/10/14 07:34:54;;;;;;;7.88;3.47;;;9.10;78.60;;;;;;5071384;28;20194;-64
2021/10/14 07:37:22;;;;;;;3.83;3.13;;;9.20;78.30;;;;;;5071583;28;20225;-64
2021/10/14 07:39:50;;;;;;;6.75;3.78;;;9.60;73.00;;;;;;5072215;28;20228;-64
2021/10/14 07:42:17;;;;;;;4.47;3.40;;;9.90;74.90;;;;;;5071607;28;20217;-64
2021/10/14 07:44:44;;;;;;;3.72;2.88;;;10.10;71.30;;;;;;5071175;28;20628;-64
2021/10/14 07:47:11;;;;;;;5.03;3.47;;;10.30;71.30;;;;;;5072200;28;20247;-65
2021/10/14 07:49:39;;;;;;;5.30;3.17;;;10.60;71.60;;;;;;5070935;28;20197;-64
2021/10/14 07:52:06;;;;;;;4.45;2.67;;;10.90;71.40;;;;;;5071944;28;20698;-64
2021/10/14 07:54:35;;;;;;;3.50;2.72;;;11.10;71.00;;;;;;5070558;28;20210;-64
2021/10/14 07:57:02;;;;;;;3.75;2.65;;;11.30;68.50;;;;;;5072003;28;20554;-69
2021/10/14 07:59:29;;;;;;;4.00;2.55;;;11.70;68.60;;;;;;5071066;28;20205;-65
2021/10/14 08:01:56;;;;;;;3.95;2.85;;;11.90;65.50;;;;;;5072608;28;20185;-64
2021/10/14 08:04:23;;;;;;;6.43;3.28;;;12.10;63.50;;;;;;5072274;28;20201;-64
2021/10/14 08:06:50;;;;;;;5.65;4.25;;;12.40;64.40;;;;;;5071703;28;20224;-65
2021/10/14 08:09:18;;;;;;;5.22;3.28;;;12.90;61.90;;;;;;5071096;28;20295;-65
2021/10/14 08:11:46;;;;;;;6.20;3.20;;;13.30;58.70;;;;;;5072976;28;20194;-65
2021/10/14 08:14:13;;;;;;;5.18;3.40;;;13.50;57.70;;;;;;5071173;28;20186;-65
2021/10/14 08:16:41;;;;;;;3.90;3.20;;;13.60;57.10;;;;;;5072725;28;20628;-65
2021/10/14 08:19:08;;;;;;;4.30;3.23;;;13.60;55.90;;;;;;5071496;28;20476;-64
2021/10/14 08:21:35;;;;;;;4.83;3.73;;;13.60;58.10;;;;;;5073034;28;20443;-64
2021/10/14 08:24:02;;;;;;;4.23;2.80;;;13.70;57.80;;;;;;5073281;28;20507;-65
2021/10/14 08:26:29;;;;;;;5.50;3.53;;;13.70;55.50;;;;;;5073276;28;20519;-64
2021/10/14 08:28:57;;;;;;;5.50;3.23;;;13.40;54.20;;;;;;5072131;28;20511;-65
2021/10/14 08:31:24;;;;;;;5.13;3.90;;;13.30;54.10;;;;;;5072512;28;20511;-64
2021/10/14 08:33:52;;;;;;;6.00;4.30;;;13.30;55.40;;;;;;5072259;28;20507;-64
2021/10/14 08:36:19;;;;;;;8.13;4.97;;;13.40;56.20;;;;;;5072446;28;20993;-65
2021/10/14 08:38:47;;;;;;;12.77;5.60;;;13.60;56.40;;;;;;5068103;28;20562;-66
2021/10/14 08:41:19;;;;;;;9.40;6.10;;;13.70;54.20;;;;;;5070530;28;20451;-68
2021/10/14 08:43:47;;;;;;;9.47;7.33;;;13.60;55.00;;;;;;5071199;28;20432;-64
2021/10/14 08:46:16;;;;;;;14.07;8.83;;;13.50;54.80;;;;;;5073855;28;20480;-64
2021/10/14 08:48:43;;;;;;;12.98;9.68;;;13.50;53.50;;;;;;5073871;28;20444;-64
2021/10/14 08:51:12;;;;;;;14.10;8.37;;;13.60;55.10;;;;;;5073648;28;20281;-65
2021/10/14 08:53:39;;;;;;;17.60;11.73;;;13.90;53.50;;;;;;5073703;28;20522;-65
2021/10/14 08:56:07;;;;;;;18.83;10.43;;;14.10;54.00;;;;;;5071548;28;20989;-64
2021/10/14 08:58:34;;;;;;;20.90;11.10;;;14.10;54.00;;;;;;5072072;28;20570;-65
2021/10/14 09:01:08;;;;;;;19.03;10.30;;;14.20;54.10;;;;;;5072857;28;20518;-65
2021/10/14 09:03:40;;;;;;;26.40;13.30;;;14.30;53.70;;;;;;5072744;28;20480;-64
2021/10/14 09:06:10;;;;;;;17.87;11.70;;;14.50;53.90;;;;;;5071887;28;20436;-65
2021/10/14 09:08:40;;;;;;;17.80;10.10;;;14.60;53.80;;;;;;5071809;28;20543;-66
2021/10/14 09:11:10;;;;;;;15.10;10.50;;;14.70;52.90;;;;;;5070721;28;20462;-64
2021/10/14 09:13:38;;;;;;;20.13;11.80;;;14.90;53.20;;;;;;5072468;28;20440;-65
2021/10/14 09:16:36;;;;;;;16.93;10.57;;;15.00;51.50;;;;;;5061623;28;20497;-66
2021/10/14 09:19:18;;;;;;;14.07;9.43;;;15.30;52.70;;;;;;5010963;28;20482;-65
2021/10/14 09:21:47;;;;;;;9.23;6.47;;;15.90;53.30;;;;;;5064373;28;20497;-65
2021/10/14 09:24:27;;;;;;;13.00;7.37;;;16.60;50.20;;;;;;5072786;28;20463;-66
2021/10/14 09:26:55;;;;;;;7.33;5.27;;;17.50;49.50;;;;;;5073157;28;20439;-65
2021/10/14 09:29:25;;;;;;;6.70;4.53;;;18.20;45.90;;;;;;5073176;28;20513;-64
2021/10/14 09:31:55;;;;;;;7.40;4.17;;;18.70;45.80;;;;;;5073265;28;20440;-64
2021/10/14 09:34:35;;;;;;;7.43;3.97;;;19.40;45.60;;;;;;5073205;28;20475;-65
2021/10/14 09:37:04;;;;;;;5.33;3.37;;;20.00;43.10;;;;;;5073019;28;20511;-66
2021/10/14 09:39:31;;;;;;;5.67;3.50;;;20.80;44.40;;;;;;5072998;28;20487;-65
2021/10/14 09:41:59;;;;;;;5.80;3.37;;;21.80;43.70;;;;;;5073061;28;20829;-65
2021/10/14 09:44:49;;;;;;;4.57;3.27;;;23.50;41.10;;;;;;5072915;28;20522;-65
2021/10/14 09:47:16;;;;;;;4.20;3.07;;;25.70;36.00;;;;;;5072550;28;20822;-65
2021/10/14 09:49:45;;;;;;;4.23;2.50;;;27.70;31.90;;;;;;5072828;28;20475;-65
2021/10/14 09:52:13;;;;;;;3.13;2.30;;;29.30;31.70;;;;;;5072847;28;20520;-66
2021/10/14 09:54:41;;;;;;;2.67;2.00;;;31.10;29.00;;;;;;5072959;28;20523;-63
2021/10/14 09:57:12;;;;;;;5.17;2.67;;;32.70;25.50;;;;;;5072951;28;20527;-64
2021/10/14 09:59:39;;;;;;;3.43;2.60;;;34.50;24.10;;;;;;5072775;28;20579;-64
2021/10/14 10:02:07;;;;;;;6.43;2.63;;;36.20;19.80;;;;;;5072854;28;20478;-64
2021/10/14 10:04:34;;;;;;;3.90;3.50;;;36.80;19.90;;;;;;5072746;28;20531;-64
2021/10/14 10:07:04;;;;;;;2.67;2.07;;;38.10;19.20;;;;;;5072671;28;20475;-64
2021/10/14 10:09:33;;;;;;;2.40;1.80;;;38.90;16.80;;;;;;5072567;28;20555;-64
2021/10/14 10:12:01;;;;;;;4.30;1.70;;;38.80;14.50;;;;;;5072865;28;20522;-64
2021/10/14 10:14:29;;;;;;;3.23;1.60;;;37.30;12.90;;;;;;5072492;28;20534;-64
2021/10/14 10:17:02;;;;;;;3.87;2.33;;;35.10;13.30;;;;;;5072491;28;20925;-64
2021/10/14 10:19:46;;;;;;;4.13;2.20;;;33.30;15.80;;;;;;5072175;28;20480;-66
2021/10/14 10:22:52;;;;;;;2.50;2.10;;;32.00;17.10;;;;;;5072583;28;20446;-64
2021/10/14 10:25:35;;;;;;;3.50;2.40;;;30.40;17.70;;;;;;5072585;28;20445;-63
2021/10/14 10:28:03;;;;;;;2.90;2.10;;;28.90;18.60;;;;;;5072548;28;20550;-65
2021/10/14 10:30:32;;;;;;;2.73;1.60;;;27.80;20.40;;;;;;5072597;28;20535;-65
2021/10/14 10:32:59;;;;;;;2.80;1.60;;;27.20;21.30;;;;;;5072406;28;20942;-66
2021/10/14 10:35:41;;;;;;;3.73;1.63;;;26.60;21.20;;;;;;5072836;28;20517;-65
2021/10/14 10:38:17;;;;;;;3.50;1.73;;;26.00;21.60;;;;;;5072385;28;20967;-65
2021/10/14 10:40:45;;;;;;;3.67;1.80;;;25.70;21.90;;;;;;5072581;28;20472;-65
2021/10/14 10:43:15;;;;;;;2.63;1.20;;;25.40;23.00;;;;;;5072619;28;20529;-65
2021/10/14 10:45:49;;;;;;;2.10;1.20;;;25.00;22.90;;;;;;5072456;28;20938;-65
2021/10/14 10:48:21;;;;;;;2.80;1.57;;;24.60;22.70;;;;;;5072265;28;20524;-65
2021/10/14 10:50:57;;;;;;;3.73;1.50;;;24.40;23.50;;;;;;5072435;28;20483;-65
2021/10/14 10:53:38;;;;;;;3.37;1.60;;;24.20;23.80;;;;;;5072426;28;20471;-65
2021/10/14 10:56:06;;;;;;;2.50;1.43;;;24.00;24.40;;;;;;5072170;28;20527;-65
2021/10/14 10:58:45;;;;;;;3.77;2.37;;;24.20;24.60;;;;;;5074524;28;20519;-65
2021/10/14 11:01:13;;;;;;;6.47;3.47;;;24.40;23.80;;;;;;5076356;28;20536;-69
2021/10/14 11:03:51;;;;;;;2.87;2.00;;;25.00;24.80;;;;;;5075951;28;20842;-65
2021/10/14 11:06:18;;;;;;;3.60;1.80;;;26.30;25.20;;;;;;5076229;28;20785;-65
2021/10/14 11:08:46;;;;;;;3.33;1.63;;;28.10;23.80;;;;;;5075653;28;20502;-65
2021/10/14 11:11:18;;;;;;;3.00;1.80;;;29.90;22.10;;;;;;5076095;28;20489;-65
2021/10/14 11:13:48;;;;;;;2.20;1.60;;;31.70;20.40;;;;;;5076082;28;20434;-65
2021/10/14 11:16:16;;;;;;;2.40;1.77;;;32.70;18.00;;;;;;5075832;28;20477;-65
2021/10/14 11:18:45;;;;;;;2.63;1.77;;;33.10;18.10;;;;;;5075516;28;20897;-66
2021/10/14 11:21:14;;;;;;;3.77;1.57;;;33.70;17.60;;;;;;5075650;28;20744;-65
2021/10/14 11:23:43;;;;;;;2.70;1.80;;;34.20;16.40;;;;;;5075377;28;20997;-65
2021/10/14 11:26:13;;;;;;;2.70;1.60;;;34.00;16.20;;;;;;5075538;28;20468;-65
2021/10/14 11:29:01;;;;;;;3.80;2.33;;;33.70;16.30;;;;;;5075772;28;20526;-65
2021/10/14 11:31:35;;;;;;;4.20;2.20;;;33.10;16.70;;;;;;5075711;28;20443;-69
2021/10/14 11:34:11;;;;;;;2.50;1.60;;;32.70;16.60;;;;;;5075452;28;20778;-65
2021/10/14 11:36:49;;;;;;;2.30;1.77;;;32.40;16.10;;;;;;5075145;28;20443;-66
2021/10/14 11:39:16;;;;;;;2.37;1.33;;;32.50;16.70;;;;;;5075178;28;20478;-65
2021/10/14 11:41:45;;;;;;;4.73;1.57;;;32.50;16.10;;;;;;5075253;28;20993;-65
2021/10/14 11:44:12;;;;;;;2.57;1.50;;;32.10;15.40;;;;;;5075281;28;20471;-65
2021/10/14 11:46:41;;;;;;;3.33;1.17;;;31.70;16.40;;;;;;5075278;28;20432;-66
2021/10/14 11:49:09;;;;;;;3.50;1.43;;;31.40;16.40;;;;;;5074881;28;20544;-65
2021/10/14 11:51:37;;;;;;;2.00;1.20;;;30.90;16.50;;;;;;5075243;28;20500;-65
2021/10/14 11:54:06;;;;;;;3.43;1.57;;;30.30;16.30;;;;;;5075499;28;21090;-65
2021/10/14 11:56:46;;;;;;;6.40;1.60;;;29.50;16.90;;;;;;5075334;28;20442;-65
2021/10/14 11:59:14;;;;;;;3.67;2.00;;;28.90;17.50;;;;;;5075146;28;20897;-65
2021/10/14 12:01:55;;;;;;;2.27;1.47;;;28.50;18.20;;;;;;5075211;28;20780;-65
2021/10/14 12:04:31;;;;;;;2.50;1.50;;;28.00;18.60;;;;;;5076220;28;20834;-65
2021/10/14 12:06:59;;;;;;;2.60;1.73;;;27.40;19.10;;;;;;5075769;28;20886;-64
2021/10/14 12:09:26;;;;;;;3.33;1.60;;;27.00;19.40;;;;;;5074587;28;20550;-65
2021/10/14 12:12:04;;;;;;;3.47;1.70;;;26.70;19.40;;;;;;5075390;28;20475;-65
2021/10/14 12:14:39;;;;;;;2.37;1.53;;;26.80;20.10;;;;;;5075062;28;20518;-65
2021/10/14 12:17:08;;;;;;;2.93;1.70;;;26.70;19.80;;;;;;5075191;28;20567;-66
2021/10/14 12:19:41;;;;;;;2.73;1.60;;;26.30;19.70;;;;;;5074893;28;20520;-64
2021/10/14 12:22:10;;;;;;;3.60;1.57;;;25.80;20.40;;;;;;5074931;28;20432;-68
2021/10/14 12:24:52;;;;;;;3.40;1.70;;;25.60;20.20;;;;;;5074426;28;20932;-66
2021/10/14 12:27:21;;;;;;;2.27;1.20;;;25.50;20.80;;;;;;5074935;28;20524;-64
2021/10/14 12:29:50;;;;;;;2.83;1.47;;;25.70;21.20;;;;;;5074610;28;20526;-64
2021/10/14 12:32:18;;;;;;;4.13;1.90;;;26.20;20.80;;;;;;5074318;28;20437;-65
2021/10/14 12:34:52;;;;;;;2.97;1.70;;;26.90;20.50;;;;;;5074656;28;20523;-65
2021/10/14 12:37:24;;;;;;;3.43;2.40;;;28.10;20.60;;;;;;5074840;28;20962;-65
2021/10/14 12:40:26;;;;;;;2.20;1.20;;;30.30;19.10;;;;;;5074710;28;20520;-65
2021/10/14 12:43:08;;;;;;;2.87;1.97;;;30.50;18.30;;;;;;5074513;28;20807;-65
2021/10/14 12:48:33;;;;;;;3.20;1.73;;;29.30;18.90;;;;;;5073898;28;20862;-64
2021/10/14 12:51:09;;;;;;;3.03;1.30;;;29.20;18.10;;;;;;5074452;28;20436;-65
2021/10/14 12:53:41;;;;;;;2.20;1.30;;;29.00;18.40;;;;;;5074265;28;20853;-65
2021/10/14 12:56:09;;;;;;;3.60;1.83;;;28.70;18.60;;;;;;5074045;28;20475;-64
2021/10/14 12:58:37;;;;;;;2.30;1.50;;;28.20;18.50;;;;;;5074133;28;20502;-65
2021/10/14 13:01:10;;;;;;;3.47;1.80;;;27.60;19.30;;;;;;5074293;28;20474;-65
2021/10/14 13:03:38;;;;;;;2.20;1.30;;;26.90;19.10;;;;;;5073901;28;20449;-65
2021/10/14 13:06:05;;;;;;;2.30;1.50;;;26.20;20.20;;;;;;5073909;28;20443;-65